createdAt,value
2018-08-18T00:00:30.542Z,6.50
2018-08-18T00:03:00.162Z,7.30
2018-08-18T00:05:29.957Z,6.27
2018-08-18T00:08:00.188Z,6.27
2018-08-18T00:10:29.798Z,6.30
2018-08-18T00:12:59.484Z,6.70
2018-08-18T00:15:29.172Z,7.50
2018-08-18T00:17:58.816Z,6.97
2018-08-18T00:20:28.599Z,5.57
2018-08-18T00:22:58.226Z,6.50
2018-08-18T00:25:28.048Z,7.00
2018-08-18T00:28:01.282Z,6.80
2018-08-18T00:30:31.043Z,6.67
2018-08-18T00:33:00.751Z,7.00
2018-08-18T00:35:30.575Z,7.13
2018-08-18T00:38:00.271Z,6.17
2018-08-18T00:40:30.133Z,8.00
2018-08-18T00:42:59.894Z,7.80
2018-08-18T00:45:29.610Z,6.57
2018-08-18T00:47:59.073Z,6.53
2018-08-18T00:50:42.950Z,5.73
2018-08-18T00:53:14.921Z,6.07
2018-08-18T00:55:44.657Z,6.00
2018-08-18T00:58:19.622Z,5.97
2018-08-18T01:00:54.273Z,5.63
2018-08-18T01:03:23.860Z,6.33
2018-08-18T01:05:53.516Z,7.30
2018-08-18T01:08:23.142Z,5.93
2018-08-18T01:10:53.053Z,6.00
2018-08-18T01:13:22.618Z,6.60
2018-08-18T01:15:52.404Z,7.50
2018-08-18T01:18:22.036Z,6.60
2018-08-18T01:20:51.657Z,6.07
2018-08-18T01:23:21.153Z,5.30
2018-08-18T01:25:51.146Z,5.90
2018-08-18T01:28:20.750Z,5.97
2018-08-18T01:31:05.963Z,6.20
2018-08-18T01:33:37.729Z,6.40
2018-08-18T01:36:07.656Z,6.00
2018-08-18T01:38:38.325Z,5.20
2018-08-18T01:41:24.851Z,6.80
2018-08-18T01:44:18.884Z,6.13
2018-08-18T01:46:50.208Z,6.03
2018-08-18T01:49:36.103Z,5.90
2018-08-18T01:52:13.866Z,5.20
2018-08-18T01:54:44.954Z,5.63
2018-08-18T01:57:15.464Z,5.50
2018-08-18T01:59:46.234Z,5.77
2018-08-18T02:02:22.213Z,5.63
2018-08-18T02:04:55.983Z,6.30
2018-08-18T02:07:30.113Z,5.90
2018-08-18T02:09:59.835Z,6.80
2018-08-18T02:12:29.814Z,6.03
2018-08-18T02:15:00.287Z,5.60
2018-08-18T02:17:32.942Z,5.20
2018-08-18T02:20:02.811Z,4.17
2018-08-18T02:22:33.058Z,6.60
2018-08-18T02:25:02.788Z,5.30
2018-08-18T02:27:32.477Z,5.77
2018-08-18T02:30:18.990Z,4.50
2018-08-18T02:32:48.564Z,5.57
2018-08-18T02:35:18.411Z,4.50
2018-08-18T02:37:48.173Z,4.70
2018-08-18T02:40:18.826Z,4.70
2018-08-18T02:42:48.344Z,4.30
2018-08-18T02:45:18.174Z,4.43
2018-08-18T02:47:47.985Z,4.87
2018-08-18T02:50:17.669Z,4.23
2018-08-18T02:52:48.062Z,4.40
2018-08-18T02:55:17.486Z,4.20
2018-08-18T02:57:47.281Z,4.50
2018-08-18T03:00:24.861Z,4.20
2018-08-18T03:02:54.437Z,4.70
2018-08-18T03:05:24.216Z,4.50
2018-08-18T03:07:54.014Z,4.50
2018-08-18T03:10:25.505Z,4.13
2018-08-18T03:13:01.013Z,4.30
2018-08-18T03:16:07.269Z,4.30
2018-08-18T03:18:42.236Z,3.80
2018-08-18T03:21:11.924Z,5.00
2018-08-18T03:23:58.719Z,4.57
2018-08-18T03:26:33.388Z,3.67
2018-08-18T03:29:03.583Z,4.60
2018-08-18T03:31:33.234Z,3.90
2018-08-18T03:34:03.447Z,4.07
2018-08-18T03:36:36.386Z,4.30
2018-08-18T03:39:13.143Z,3.60
2018-08-18T03:41:43.160Z,3.53
2018-08-18T03:44:12.937Z,4.20
2018-08-18T03:46:42.508Z,2.93
2018-08-18T03:49:12.537Z,4.00
2018-08-18T03:51:58.765Z,4.63
2018-08-18T03:54:28.504Z,4.10
2018-08-18T03:56:58.167Z,3.20
2018-08-18T03:59:27.974Z,3.53
2018-08-18T04:01:58.674Z,3.13
2018-08-18T04:04:30.385Z,3.40
2018-08-18T04:07:00.957Z,4.30
2018-08-18T04:09:31.782Z,2.97
2018-08-18T04:12:03.422Z,2.30
2018-08-18T04:14:37.632Z,3.27
2018-08-18T04:17:39.770Z,3.87
2018-08-18T04:20:09.589Z,3.50
2018-08-18T04:22:39.343Z,3.70
2018-08-18T04:25:09.227Z,3.50
2018-08-18T04:27:47.405Z,3.43
2018-08-18T04:30:20.926Z,3.53
2018-08-18T04:33:01.610Z,3.27
2018-08-18T04:35:32.067Z,3.30
2018-08-18T04:38:04.218Z,2.70
2018-08-18T04:40:36.021Z,2.50
2018-08-18T04:43:05.559Z,2.97
2018-08-18T04:45:35.278Z,2.67
2018-08-18T04:48:05.058Z,2.70
2018-08-18T04:50:34.774Z,2.73
2018-08-18T04:53:04.423Z,3.00
2018-08-18T04:55:33.910Z,2.50
2018-08-18T04:58:03.593Z,2.73
2018-08-18T05:00:33.294Z,3.00
2018-08-18T05:03:02.943Z,3.10
2018-08-18T05:05:33.083Z,3.20
2018-08-18T05:08:02.741Z,2.70
2018-08-18T05:10:32.322Z,2.30
2018-08-18T05:13:02.277Z,2.57
2018-08-18T05:15:31.809Z,3.50
2018-08-18T05:18:01.312Z,3.80
2018-08-18T05:20:30.908Z,3.63
2018-08-18T05:23:18.988Z,3.67
2018-08-18T05:25:50.504Z,2.77
2018-08-18T05:28:20.445Z,2.67
2018-08-18T05:30:53.198Z,2.73
2018-08-18T05:33:22.768Z,2.93
2018-08-18T05:35:52.436Z,2.70
2018-08-18T05:38:22.219Z,2.83
2018-08-18T05:40:51.912Z,2.73
2018-08-18T05:43:21.734Z,2.40
2018-08-18T05:45:51.300Z,3.17
2018-08-18T05:48:20.933Z,3.00
2018-08-18T05:50:50.553Z,2.20
2018-08-18T05:53:24.393Z,2.40
2018-08-18T05:55:54.349Z,2.63
2018-08-18T05:58:24.206Z,2.20
2018-08-18T06:00:57.046Z,2.30
2018-08-18T06:03:35.603Z,2.60
2018-08-18T06:06:05.347Z,3.10
2018-08-18T06:08:35.067Z,2.77
2018-08-18T06:11:04.711Z,2.43
2018-08-18T06:13:34.327Z,3.10
2018-08-18T06:16:11.804Z,3.30
2018-08-18T06:18:41.863Z,2.00
2018-08-18T06:21:11.644Z,2.67
2018-08-18T06:23:41.269Z,2.77
2018-08-18T06:26:10.914Z,2.40
2018-08-18T06:28:40.705Z,3.43
2018-08-18T06:31:10.540Z,2.60
2018-08-18T06:33:40.219Z,2.20
2018-08-18T06:36:09.837Z,2.97
2018-08-18T06:38:39.533Z,2.90
2018-08-18T06:41:09.218Z,1.97
2018-08-18T06:43:39.730Z,2.43
2018-08-18T06:46:09.714Z,2.50
2018-08-18T06:48:40.999Z,2.70
2018-08-18T06:51:10.732Z,2.93
2018-08-18T06:53:45.504Z,2.40
2018-08-18T06:56:15.174Z,2.33
2018-08-18T06:58:44.987Z,2.67
2018-08-18T07:01:14.592Z,2.70
2018-08-18T07:03:46.041Z,1.90
2018-08-18T07:06:17.355Z,2.20
2018-08-18T07:08:52.964Z,2.20
2018-08-18T07:11:22.641Z,2.90
2018-08-18T07:13:52.354Z,2.67
2018-08-18T07:16:22.075Z,2.30
2018-08-18T07:18:51.887Z,2.70
2018-08-18T07:21:21.541Z,2.83
2018-08-18T07:23:51.102Z,3.07
2018-08-18T07:26:21.029Z,2.40
2018-08-18T07:28:51.581Z,2.73
2018-08-18T07:31:21.051Z,2.77
2018-08-18T07:33:59.952Z,2.70
2018-08-18T07:36:29.523Z,3.47
2018-08-18T07:38:59.243Z,2.93
2018-08-18T07:41:28.832Z,3.30
2018-08-18T07:43:58.875Z,2.67
2018-08-18T07:46:28.529Z,3.13
2018-08-18T07:48:58.035Z,1.90
2018-08-18T07:51:27.978Z,2.10
2018-08-18T07:53:57.678Z,2.13
2018-08-18T07:56:27.376Z,1.90
2018-08-18T07:58:57.077Z,2.27
2018-08-18T08:01:26.693Z,2.70
2018-08-18T08:03:56.297Z,2.13
2018-08-18T08:06:25.838Z,2.50
2018-08-18T08:08:56.220Z,2.47
2018-08-18T08:11:26.510Z,2.00
2018-08-18T08:13:56.159Z,2.10
2018-08-18T08:16:25.792Z,1.73
2018-08-18T08:18:55.411Z,1.80
2018-08-18T08:21:25.092Z,2.43
2018-08-18T08:23:55.993Z,1.67
2018-08-18T08:26:25.510Z,2.33
2018-08-18T08:28:55.033Z,1.83
2018-08-18T08:31:24.655Z,3.27
2018-08-18T08:33:54.355Z,2.20
2018-08-18T08:36:24.112Z,1.97
2018-08-18T08:38:58.795Z,1.73
2018-08-18T08:41:33.085Z,2.80
2018-08-18T08:44:03.659Z,2.50
2018-08-18T08:46:33.366Z,2.23
2018-08-18T08:49:02.906Z,1.80
2018-08-18T08:51:32.580Z,1.70
2018-08-18T08:54:02.072Z,2.10
2018-08-18T08:56:36.940Z,2.20
2018-08-18T08:59:06.519Z,1.87
2018-08-18T09:01:36.257Z,2.00
2018-08-18T09:04:05.947Z,1.77
2018-08-18T09:06:41.243Z,2.60
2018-08-18T09:09:10.962Z,2.27
2018-08-18T09:11:40.710Z,2.20
2018-08-18T09:14:10.309Z,2.40
2018-08-18T09:16:39.977Z,2.33
2018-08-18T09:19:09.826Z,2.23
2018-08-18T09:21:44.800Z,2.53
2018-08-18T09:24:14.593Z,3.17
2018-08-18T09:26:49.353Z,2.90
2018-08-18T09:29:19.011Z,2.30
2018-08-18T09:31:48.952Z,2.70
2018-08-18T09:34:18.626Z,2.40
2018-08-18T09:36:48.763Z,2.60
2018-08-18T09:39:28.309Z,2.40
2018-08-18T09:41:57.894Z,2.10
2018-08-18T09:44:29.455Z,2.97
2018-08-18T09:46:59.493Z,2.33
2018-08-18T09:49:30.540Z,3.70
2018-08-18T09:52:00.954Z,3.20
2018-08-18T09:54:30.677Z,3.03
2018-08-18T09:57:00.364Z,3.10
2018-08-18T09:59:30.502Z,2.30
2018-08-18T10:02:00.293Z,2.30
2018-08-18T10:04:30.004Z,2.70
2018-08-18T10:06:59.923Z,2.27
2018-08-18T10:09:29.827Z,2.67
2018-08-18T10:12:00.785Z,2.27
2018-08-18T10:14:30.362Z,1.90
2018-08-18T10:17:00.179Z,2.20
2018-08-18T10:19:31.303Z,2.10
2018-08-18T10:22:01.877Z,2.03
2018-08-18T10:24:31.581Z,1.40
2018-08-18T10:27:06.289Z,1.97
2018-08-18T10:29:36.025Z,1.90
2018-08-18T10:32:06.325Z,2.23
2018-08-18T10:34:36.014Z,1.77
2018-08-18T10:37:07.415Z,1.93
2018-08-18T10:39:38.360Z,1.57
2018-08-18T10:42:14.619Z,1.73
2018-08-18T10:44:50.919Z,2.37
2018-08-18T10:47:21.924Z,2.93
2018-08-18T10:50:08.524Z,1.80
2018-08-18T10:52:55.012Z,1.77
2018-08-18T10:55:24.666Z,1.60
2018-08-18T10:58:09.504Z,2.20
2018-08-18T11:00:39.302Z,1.80
2018-08-18T11:03:09.314Z,1.80
2018-08-18T11:05:38.885Z,2.00
2018-08-18T11:08:09.266Z,1.43
2018-08-18T11:10:40.906Z,1.60
2018-08-18T11:13:10.833Z,1.87
2018-08-18T11:15:40.443Z,1.50
2018-08-18T11:18:10.258Z,1.50
2018-08-18T11:20:40.058Z,1.80
2018-08-18T11:23:11.705Z,1.57
2018-08-18T11:25:50.310Z,2.20
2018-08-18T11:28:20.784Z,1.60
2018-08-18T11:30:52.513Z,1.70
2018-08-18T11:33:43.078Z,1.47
2018-08-18T11:36:13.258Z,2.23
2018-08-18T11:38:42.915Z,1.80
2018-08-18T11:41:12.616Z,2.00
2018-08-18T11:43:50.459Z,1.70
2018-08-18T11:46:21.096Z,2.27
2018-08-18T11:48:50.668Z,1.80
2018-08-18T11:51:20.411Z,1.63
2018-08-18T11:53:59.855Z,2.20
2018-08-18T11:56:29.645Z,1.93
2018-08-18T11:59:09.921Z,2.50
2018-08-18T12:01:41.341Z,1.77
2018-08-18T12:04:11.400Z,2.33
2018-08-18T12:06:48.057Z,2.10
2018-08-18T12:09:18.097Z,2.03
2018-08-18T12:11:50.097Z,2.67
2018-08-18T12:14:19.891Z,1.93
2018-08-18T12:16:49.684Z,2.20
2018-08-18T12:19:19.299Z,1.80
2018-08-18T12:21:49.088Z,2.07
2018-08-18T12:24:20.977Z,2.33
2018-08-18T12:27:09.446Z,2.00
2018-08-18T12:29:39.154Z,2.00
2018-08-18T12:32:18.425Z,2.20
2018-08-18T12:34:48.976Z,2.67
2018-08-18T12:37:18.688Z,2.43
2018-08-18T12:39:48.501Z,1.87
2018-08-18T12:42:23.135Z,2.20
2018-08-18T12:44:52.819Z,2.10
2018-08-18T12:47:22.462Z,2.23
2018-08-18T12:49:53.179Z,2.47
2018-08-18T12:52:22.804Z,2.00
2018-08-18T12:54:52.355Z,1.90
2018-08-18T12:57:38.937Z,2.00
2018-08-18T13:00:08.733Z,2.13
2018-08-18T13:02:46.694Z,1.80
2018-08-18T13:05:17.044Z,1.77
2018-08-18T13:07:46.650Z,1.50
2018-08-18T13:10:29.323Z,1.80
2018-08-18T13:12:59.110Z,1.90
2018-08-18T13:15:28.754Z,1.70
2018-08-18T13:17:58.560Z,1.67
2018-08-18T13:20:28.247Z,1.97
2018-08-18T13:22:57.889Z,1.40
2018-08-18T13:25:28.485Z,1.93
2018-08-18T13:27:58.492Z,2.30
2018-08-18T13:30:28.793Z,1.80
2018-08-18T13:32:59.414Z,1.83
2018-08-18T13:35:28.925Z,1.90
2018-08-18T13:37:58.641Z,1.50
2018-08-18T13:40:29.600Z,1.47
2018-08-18T13:42:59.376Z,1.70
2018-08-18T13:45:43.601Z,1.20
2018-08-18T13:48:13.659Z,1.83
2018-08-18T13:50:43.404Z,2.20
2018-08-18T13:53:13.091Z,1.47
2018-08-18T13:55:42.778Z,1.97
2018-08-18T13:58:13.018Z,1.77
2018-08-18T14:00:42.594Z,1.63
2018-08-18T14:03:29.102Z,1.63
2018-08-18T14:05:58.918Z,1.70
2018-08-18T14:08:28.534Z,1.70
2018-08-18T14:10:58.179Z,1.77
2018-08-18T14:13:29.118Z,1.77
2018-08-18T14:15:59.180Z,2.00
2018-08-18T14:18:28.879Z,1.30
2018-08-18T14:21:05.417Z,1.20
2018-08-18T14:23:35.203Z,1.83
2018-08-18T14:26:04.880Z,2.33
2018-08-18T14:28:34.782Z,1.93
2018-08-18T14:31:05.079Z,2.20
2018-08-18T14:33:34.590Z,1.90
2018-08-18T14:36:09.342Z,1.73
2018-08-18T14:38:39.177Z,1.93
2018-08-18T14:41:08.760Z,1.97
2018-08-18T14:43:40.495Z,1.70
2018-08-18T14:46:14.535Z,1.93
2018-08-18T14:48:44.134Z,1.77
2018-08-18T14:51:13.796Z,2.27
2018-08-18T14:53:43.661Z,1.87
2018-08-18T14:56:13.403Z,2.17
2018-08-18T14:58:44.600Z,2.20
2018-08-18T15:01:15.295Z,2.10
2018-08-18T15:03:45.001Z,2.00
2018-08-18T15:06:14.695Z,2.30
2018-08-18T15:08:44.522Z,2.07
2018-08-18T15:11:14.638Z,2.80
2018-08-18T15:13:44.324Z,2.03
2018-08-18T15:16:13.942Z,2.13
2018-08-18T15:18:43.759Z,1.63
2018-08-18T15:21:13.475Z,2.13
2018-08-18T15:23:43.152Z,2.20
2018-08-18T15:26:12.887Z,2.20
2018-08-18T15:28:42.601Z,2.10
2018-08-18T15:31:12.176Z,1.73
2018-08-18T15:33:41.941Z,1.70
2018-08-18T15:36:28.326Z,1.83
2018-08-18T15:38:58.039Z,2.00
2018-08-18T15:41:34.443Z,1.57
2018-08-18T15:44:08.834Z,1.53
2018-08-18T15:46:38.493Z,1.70
2018-08-18T15:49:08.139Z,1.40
2018-08-18T15:51:37.838Z,2.40
2018-08-18T15:54:07.849Z,1.90
2018-08-18T15:56:37.370Z,2.30
2018-08-18T15:59:07.123Z,1.80
2018-08-18T16:01:36.741Z,2.47
2018-08-18T16:04:06.408Z,2.67
2018-08-18T16:06:36.569Z,2.20
2018-08-18T16:09:09.240Z,1.70
2018-08-18T16:11:38.930Z,1.93
2018-08-18T16:14:09.429Z,1.40
2018-08-18T16:16:56.832Z,2.10
2018-08-18T16:19:26.934Z,1.50
2018-08-18T16:21:57.307Z,1.87
2018-08-18T16:24:36.337Z,1.40
2018-08-18T16:27:07.154Z,1.57
2018-08-18T16:29:37.710Z,1.47
2018-08-18T16:32:21.228Z,2.20
2018-08-18T16:35:00.520Z,2.43
2018-08-18T16:37:31.068Z,1.47
2018-08-18T16:40:00.763Z,1.77
2018-08-18T16:42:33.234Z,1.53
2018-08-18T16:45:02.754Z,1.90
2018-08-18T16:47:37.922Z,1.60
2018-08-18T16:50:07.625Z,1.83
2018-08-18T16:52:37.231Z,2.20
2018-08-18T16:55:06.887Z,1.93
2018-08-18T16:57:36.557Z,5.70
2018-08-18T17:00:06.355Z,5.47
2018-08-18T17:02:39.014Z,10.60
2018-08-18T17:05:09.820Z,5.43
2018-08-18T17:07:44.200Z,4.23
2018-08-18T17:10:13.861Z,3.27
2018-08-18T17:12:43.716Z,2.20
2018-08-18T17:15:16.214Z,1.93
2018-08-18T17:17:46.122Z,1.40
2018-08-18T17:20:15.857Z,1.97
2018-08-18T17:22:46.192Z,1.30
2018-08-18T17:25:15.885Z,1.63
2018-08-18T17:27:45.532Z,1.33
2018-08-18T17:30:15.318Z,2.60
2018-08-18T17:32:44.807Z,1.13
2018-08-18T17:35:14.396Z,1.70
2018-08-18T17:37:44.005Z,1.60
2018-08-18T17:40:13.801Z,1.23
2018-08-18T17:42:43.456Z,1.40
2018-08-18T17:45:13.369Z,1.40
2018-08-18T17:47:51.000Z,1.50
2018-08-18T17:50:25.022Z,2.00
2018-08-18T17:52:54.603Z,2.43
2018-08-18T17:55:24.536Z,1.67
2018-08-18T17:57:54.262Z,2.30
2018-08-18T18:00:24.480Z,1.57
2018-08-18T18:03:00.644Z,1.43
2018-08-18T18:05:34.222Z,1.50
2018-08-18T18:08:05.004Z,1.60
2018-08-18T18:10:36.783Z,1.77
2018-08-18T18:13:29.572Z,2.03
2018-08-18T18:15:59.339Z,1.97
2018-08-18T18:18:36.452Z,1.63
2018-08-18T18:21:06.127Z,1.70
2018-08-18T18:23:35.807Z,1.60
2018-08-18T18:26:05.458Z,1.63
2018-08-18T18:28:35.233Z,2.20
2018-08-18T18:31:04.868Z,2.63
2018-08-18T18:33:34.625Z,1.90
2018-08-18T18:36:04.460Z,2.20
2018-08-18T18:38:53.031Z,2.00
2018-08-18T18:41:22.926Z,1.80
2018-08-18T18:44:01.166Z,2.27
2018-08-18T18:46:30.960Z,1.60
2018-08-18T18:49:01.320Z,1.83
2018-08-18T18:51:30.977Z,1.60
2018-08-18T18:54:00.700Z,1.80
2018-08-18T18:56:30.543Z,1.67
2018-08-18T18:59:00.197Z,1.93
2018-08-18T19:01:29.869Z,1.80
2018-08-18T19:03:59.487Z,2.17
2018-08-18T19:06:29.232Z,1.90
2018-08-18T19:09:01.482Z,1.63
2018-08-18T19:11:31.047Z,1.70
2018-08-18T19:14:00.631Z,2.03
2018-08-18T19:16:30.365Z,2.80
2018-08-18T19:19:00.716Z,2.10
2018-08-18T19:21:34.176Z,2.10
2018-08-18T19:24:15.116Z,1.90
2018-08-18T19:27:55.073Z,2.17
2018-08-18T19:30:24.725Z,2.43
2018-08-18T19:32:54.277Z,2.17
2018-08-18T19:35:29.346Z,3.10
2018-08-18T19:37:59.248Z,3.00
2018-08-18T19:40:29.119Z,2.53
2018-08-18T19:42:58.798Z,1.80
2018-08-18T19:45:28.460Z,2.60
2018-08-18T19:47:58.205Z,2.47
2018-08-18T19:50:28.022Z,2.00
2018-08-18T19:53:02.661Z,2.40
2018-08-18T19:55:32.425Z,2.00
2018-08-18T19:58:02.184Z,1.80
2018-08-18T20:00:31.907Z,1.90
2018-08-18T20:03:06.291Z,1.90
2018-08-18T20:05:36.882Z,2.50
2018-08-18T20:08:06.853Z,3.13
2018-08-18T20:10:44.727Z,2.00
2018-08-18T20:13:15.540Z,2.20
2018-08-18T20:15:50.239Z,2.10
2018-08-18T20:18:19.923Z,2.10
2018-08-18T20:20:49.735Z,3.00
2018-08-18T20:23:20.900Z,2.23
2018-08-18T20:25:51.179Z,2.30
2018-08-18T20:28:21.549Z,3.03
2018-08-18T20:30:51.149Z,3.23
2018-08-18T20:33:21.013Z,2.90
2018-08-18T20:35:50.761Z,3.63
2018-08-18T20:38:20.571Z,2.73
2018-08-18T20:40:50.251Z,2.40
2018-08-18T20:43:20.040Z,2.10
2018-08-18T20:45:50.652Z,1.97
2018-08-18T20:48:22.827Z,3.07
2018-08-18T20:50:52.684Z,2.30
2018-08-18T20:53:22.333Z,2.00
2018-08-18T20:55:56.458Z,3.67
2018-08-18T20:58:26.455Z,2.07
2018-08-18T21:00:56.062Z,1.70
2018-08-18T21:03:42.378Z,2.50
2018-08-18T21:06:12.447Z,2.27
2018-08-18T21:08:42.288Z,1.90
2018-08-18T21:11:11.943Z,2.00
2018-08-18T21:13:41.686Z,2.50
2018-08-18T21:16:12.300Z,2.27
2018-08-18T21:18:41.817Z,2.40
2018-08-18T21:21:34.213Z,2.27
2018-08-18T21:24:04.185Z,2.77
2018-08-18T21:26:34.029Z,1.63
2018-08-18T21:29:03.808Z,2.67
2018-08-18T21:31:34.639Z,2.40
2018-08-18T21:34:05.575Z,2.67
2018-08-18T21:36:35.582Z,2.37
2018-08-18T21:39:08.741Z,3.37
2018-08-18T21:41:41.269Z,2.63
2018-08-18T21:44:12.904Z,2.00
2018-08-18T21:46:42.978Z,1.60
2018-08-18T21:49:13.423Z,2.30
2018-08-18T21:51:42.904Z,2.43
2018-08-18T21:54:12.603Z,1.93
2018-08-18T21:56:43.286Z,3.17
2018-08-18T21:59:14.130Z,2.27
2018-08-18T22:01:44.061Z,1.93
2018-08-18T22:04:13.908Z,2.20
2018-08-18T22:06:43.668Z,2.07
2018-08-18T22:09:24.980Z,1.83
2018-08-18T22:11:54.708Z,1.97
2018-08-18T22:14:24.314Z,2.60
2018-08-18T22:16:57.213Z,2.43
2018-08-18T22:19:28.556Z,2.50
2018-08-18T22:21:58.269Z,2.07
2018-08-18T22:24:27.968Z,2.40
2018-08-18T22:26:57.630Z,2.23
2018-08-18T22:29:27.604Z,1.93
2018-08-18T22:31:57.208Z,2.17
2018-08-18T22:34:26.693Z,1.97
2018-08-18T22:37:08.923Z,2.30
2018-08-18T22:39:38.704Z,3.10
2018-08-18T22:42:08.494Z,2.23
2018-08-18T22:44:38.196Z,1.70
2018-08-18T22:47:08.058Z,2.33
2018-08-18T22:49:37.857Z,2.40
2018-08-18T22:52:07.647Z,1.93
2018-08-18T22:54:37.275Z,2.23
2018-08-18T22:57:06.921Z,2.40
2018-08-18T22:59:36.457Z,2.00
2018-08-18T23:02:06.395Z,1.90
2018-08-18T23:04:37.865Z,2.00
2018-08-18T23:07:08.872Z,2.37
2018-08-18T23:09:38.648Z,2.03
2018-08-18T23:12:08.997Z,2.30
2018-08-18T23:14:39.685Z,1.97
2018-08-18T23:17:11.359Z,2.10
2018-08-18T23:19:40.997Z,2.53
2018-08-18T23:22:25.929Z,1.63
2018-08-18T23:24:55.609Z,2.47
2018-08-18T23:27:25.260Z,2.00
2018-08-18T23:29:54.814Z,2.20
2018-08-18T23:32:24.540Z,2.17
2018-08-18T23:34:56.605Z,2.43
2018-08-18T23:37:26.200Z,2.33
2018-08-18T23:39:57.023Z,2.20
2018-08-18T23:42:27.409Z,2.63
2018-08-18T23:44:56.990Z,2.60
2018-08-18T23:47:26.785Z,2.93
2018-08-18T23:49:56.489Z,2.10
2018-08-18T23:52:26.101Z,2.77
2018-08-18T23:54:55.820Z,2.70
2018-08-18T23:57:25.648Z,2.57
2018-08-18T23:59:55.172Z,2.00
